Terminal Aerodrome Forecast
Issued by NWS

Current Version | Previous Version | Graphics & Text | Print | Product List | Glossary On
Versions: 1 2 3 4 5 6 7 8 9 10 11 12 13 14 15 16 17 18 19 20 21 22 23 24
364
FTUS41 KILN 221749
TAFLCK
TAF
KLCK 221749Z 2218/2318 04012KT P6SM BKN012
     FM222200 06009KT P6SM BKN012
     FM230100 07005KT P6SM OVC012
     FM230700 10004KT 5SM BR VCSH OVC008
     FM231100 12004KT 2SM SHRA BR OVC008
     FM231300 15006KT 2SM SHRA BR OVC008
     FM231700 21009KT 4SM -SHRA BR OVC008=

USA.gov is the U.S. government's official web portal to all federal, state and local government web resources and services.